Time;durP1;ratioP1;P1;durP2;ratioP2;P2;SDS_P1;SDS_P2;PMS_P1;PMS_P2;Temp;Humidity;BMP_temperature;BMP_pressure;BME280_temperature;BME280_humidity;BME280_pressure;Samples;Min_cycle;Max_cycle;Signal;HPM_P1;HPM_P2
2021/01/12 00:00:33;;;;;;;33.95;20.10;;;;;;;1.13;76.10;99932.16;1806500;79;21107;-64
2021/01/12 00:03:02;;;;;;;23.42;17.92;;;;;;;1.14;76.00;99933.86;1822218;78;21200;-64
2021/01/12 00:05:30;;;;;;;26.95;19.00;;;;;;;1.16;76.09;99932.17;1822183;78;21143;-64
2021/01/12 00:07:57;;;;;;;26.57;18.92;;;;;;;1.19;76.03;99930.48;1822240;78;21063;-64
2021/01/12 00:10:26;;;;;;;26.80;19.77;;;;;;;1.21;75.81;99938.14;1822329;78;21068;-64
2021/01/12 00:12:53;;;;;;;22.45;17.73;;;;;;;1.21;75.84;99936.86;1822232;78;21135;-64
2021/01/12 00:15:21;;;;;;;24.60;18.17;;;;;;;1.19;75.77;99938.16;1806425;79;21362;-64
2021/01/12 00:17:49;;;;;;;26.75;18.98;;;;;;;1.20;75.81;99944.14;1822961;78;21060;-64
2021/01/12 00:20:16;;;;;;;25.00;19.25;;;;;;;1.15;75.74;99940.28;1812435;79;21055;-63
2021/01/12 00:22:45;;;;;;;23.27;16.90;;;;;;;1.12;75.84;99938.98;1825407;78;21114;-65
2021/01/12 00:25:13;;;;;;;25.37;18.73;;;;;;;1.07;75.94;99930.41;1825423;78;21126;-65
2021/01/12 00:27:42;;;;;;;26.62;18.98;;;;;;;1.08;76.06;99933.41;1810158;78;21377;-65
2021/01/12 00:30:11;;;;;;;23.95;17.12;;;;;;;1.13;76.15;99940.69;1825355;78;21623;-65
2021/01/12 00:32:38;;;;;;;24.55;18.60;;;;;;;1.18;76.02;99933.89;1825399;78;21064;-65
2021/01/12 00:35:08;;;;;;;25.12;18.60;;;;;;;1.18;75.81;99935.59;1812446;79;21052;-65
2021/01/12 00:37:35;;;;;;;21.77;16.95;;;;;;;1.12;75.77;99933.86;1825387;78;21063;-65
2021/01/12 00:40:04;;;;;;;23.15;17.42;;;;;;;1.07;75.80;99934.67;1825415;78;22815;-65
2021/01/12 00:42:32;;;;;;;23.45;18.07;;;;;;;1.05;75.98;99935.95;1812406;79;21147;-63
2021/01/12 00:45:00;;;;;;;23.55;17.60;;;;;;;1.05;75.99;99946.20;1825463;78;21127;-65
2021/01/12 00:47:28;;;;;;;26.77;20.00;;;;;;;1.08;76.03;99941.52;1812377;79;21060;-64
2021/01/12 00:49:56;;;;;;;24.25;17.75;;;;;;;1.10;75.93;99944.52;1825371;78;21503;-64
2021/01/12 00:52:23;;;;;;;26.73;19.92;;;;;;;1.12;75.84;99941.97;1825370;78;21908;-65
2021/01/12 00:54:50;;;;;;;24.98;18.73;;;;;;;1.09;75.79;99944.51;1812383;78;21159;-65
2021/01/12 00:57:18;;;;;;;26.52;20.02;;;;;;;1.08;75.81;99947.92;1825427;78;21068;-65
2021/01/12 00:59:46;;;;;;;24.45;18.87;;;;;;;1.08;75.82;99943.66;1812424;79;21476;-64
2021/01/12 01:02:14;;;;;;;23.60;17.65;;;;;;;1.08;75.74;99950.05;1797948;78;21118;-64
2021/01/12 01:04:42;;;;;;;24.77;18.25;;;;;;;1.05;75.78;99948.76;1812395;79;23592;-64
2021/01/12 01:07:09;;;;;;;27.00;20.05;;;;;;;1.02;75.83;99941.91;1825292;78;21178;-64
2021/01/12 01:09:38;;;;;;;27.05;19.35;;;;;;;1.01;75.81;99935.08;1812433;79;21587;-64
2021/01/12 01:12:06;;;;;;;25.20;18.30;;;;;;;0.98;75.91;99932.95;1825324;78;21092;-64
2021/01/12 01:14:34;;;;;;;23.20;18.35;;;;;;;0.99;75.89;99934.24;1825380;78;21111;-64
2021/01/12 01:17:02;;;;;;;24.37;17.67;;;;;;;1.00;75.86;99932.50;1812342;79;21202;-64
2021/01/12 01:19:31;;;;;;;24.20;18.00;;;;;;;0.99;75.90;99929.12;1792849;78;21568;-64
2021/01/12 01:21:59;;;;;;;25.00;18.82;;;;;;;0.99;75.70;99926.55;1822139;78;21047;-64
2021/01/12 01:24:26;;;;;;;28.98;20.32;;;;;;;0.91;75.59;99923.52;1806433;79;21509;-64
2021/01/12 01:26:58;;;;;;;24.75;18.35;;;;;;;0.79;75.84;99920.48;1822185;78;21123;-64
2021/01/12 01:29:25;;;;;;;25.97;19.77;;;;;;;0.71;75.92;99926.41;1822342;78;22336;-64
2021/01/12 01:31:53;;;;;;;25.95;18.85;;;;;;;0.60;76.02;99931.02;1806335;79;21139;-64
2021/01/12 01:34:21;;;;;;;26.65;18.90;;;;;;;0.52;76.33;99928.00;1822090;78;21115;-64
2021/01/12 01:36:48;;;;;;;27.58;19.57;;;;;;;0.47;76.50;99925.83;1806430;79;22117;-65
2021/01/12 01:39:16;;;;;;;26.80;19.82;;;;;;;0.42;76.59;99927.49;1822173;78;21032;-65
2021/01/12 01:41:43;;;;;;;25.52;18.82;;;;;;;0.36;76.93;99923.22;1806419;79;21536;-65
2021/01/12 01:44:11;;;;;;;25.75;19.17;;;;;;;0.38;76.98;99926.64;1822041;78;21111;-64
2021/01/12 01:46:42;;;;;;;23.77;18.37;;;;;;;0.37;77.04;99922.37;1806491;79;21493;-65
2021/01/12 01:49:08;;;;;;;27.37;20.27;;;;;;;0.36;77.06;99919.38;1821974;78;21491;-66
2021/01/12 01:51:37;;;;;;;28.02;20.17;;;;;;;0.32;77.15;99918.91;1822171;78;21055;-65
2021/01/12 01:54:05;;;;;;;25.32;19.07;;;;;;;0.29;77.21;99922.73;1806369;79;22355;-65
2021/01/12 01:56:33;;;;;;;25.20;18.50;;;;;;;0.27;77.32;99916.73;1822164;78;21571;-65
2021/01/12 01:59:01;;;;;;;31.27;20.55;;;;;;;0.29;77.15;99919.74;1822099;78;21179;-64
2021/01/12 02:01:29;;;;;;;27.95;20.23;;;;;;;0.27;77.10;99915.45;1822062;78;21044;-64
2021/01/12 02:04:19;;;;;;;27.27;18.80;;;;;;;0.29;77.14;99911.21;1806430;79;21068;-65
2021/01/12 02:06:47;;;;;;;29.32;19.45;;;;;;;0.31;76.77;99912.08;1822141;78;21155;-65
2021/01/12 02:09:30;;;;;;;31.75;19.73;;;;;;;0.28;76.55;99910.78;1822097;78;21481;-65
2021/01/12 02:11:58;;;;;;;24.95;17.25;;;;;;;0.21;76.34;99904.75;1792564;78;21059;-64
2021/01/12 02:14:28;;;;;;;24.23;18.48;;;;;;;0.15;76.38;99902.59;1806385;79;21060;-64
2021/01/12 02:16:56;;;;;;;25.35;17.80;;;;;;;0.10;76.20;99915.77;1822099;78;21060;-64
2021/01/12 02:19:26;;;;;;;23.42;16.97;;;;;;;0.06;76.26;99911.46;1806327;79;22044;-65
2021/01/12 02:21:59;;;;;;;23.65;16.85;;;;;;;0.06;76.14;99912.73;1822065;78;21114;-64
2021/01/12 02:24:26;;;;;;;22.30;16.27;;;;;;;-0.01;76.15;99906.32;1802950;79;21064;-65
2021/01/12 02:26:54;;;;;;;25.75;15.53;;;;;;;-0.03;76.06;99908.43;1822195;78;21495;-64
2021/01/12 02:29:25;;;;;;;21.82;15.50;;;;;;;-0.07;76.04;99902.42;1806386;79;21575;-65
2021/01/12 02:31:52;;;;;;;21.97;16.70;;;;;;;-0.14;76.08;99902.35;1822204;78;23518;-64
2021/01/12 02:34:20;;;;;;;20.32;16.05;;;;;;;-0.19;76.30;99899.75;1806293;79;21187;-64
2021/01/12 02:36:49;;;;;;;21.90;15.05;;;;;;;-0.21;76.27;99901.47;1792496;78;21079;-65
2021/01/12 02:39:16;;;;;;;20.60;15.78;;;;;;;-0.21;76.39;99900.19;1806361;79;21112;-63
2021/01/12 02:41:44;;;;;;;20.55;15.80;;;;;;;-0.17;76.44;99892.95;1822129;78;21119;-63
2021/01/12 02:44:25;;;;;;;24.55;16.48;;;;;;;-0.14;76.35;99883.17;1806458;79;21525;-64
2021/01/12 02:46:54;;;;;;;24.25;17.50;;;;;;;-0.15;76.44;99878.48;1822070;78;21111;-64
2021/01/12 02:49:23;;;;;;;21.27;15.78;;;;;;;-0.11;76.41;99881.51;1822118;78;21164;-64
2021/01/12 02:51:51;;;;;;;19.55;13.53;;;;;;;-0.09;76.29;99873.44;1806449;79;21473;-64
2021/01/12 02:54:18;;;;;;;20.57;15.03;;;;;;;-0.08;75.99;99869.17;1822129;78;21067;-64
2021/01/12 02:56:46;;;;;;;18.23;13.90;;;;;;;-0.12;75.81;99872.55;1806362;79;23587;-64
2021/01/12 02:59:13;;;;;;;20.52;13.90;;;;;;;-0.16;75.74;99867.83;1822040;78;21131;-66
2021/01/12 03:01:41;;;;;;;16.27;12.70;;;;;;;-0.22;75.71;99867.80;1806304;78;21147;-64
2021/01/12 03:04:08;;;;;;;17.25;12.90;;;;;;;-0.23;75.77;99866.08;1822063;78;21488;-64
2021/01/12 03:06:36;;;;;;;18.32;13.15;;;;;;;-0.22;75.69;99868.22;1806377;79;21036;-64
2021/01/12 03:09:04;;;;;;;16.77;13.05;;;;;;;-0.21;75.78;99867.38;1822091;78;21204;-63
2021/01/12 03:11:32;;;;;;;23.62;14.80;;;;;;;-0.21;75.58;99864.82;1806381;79;21134;-64
2021/01/12 03:13:59;;;;;;;15.83;12.43;;;;;;;-0.21;75.69;99869.52;1822087;78;21056;-64
2021/01/12 03:16:27;;;;;;;26.17;14.15;;;;;;;-0.17;75.58;99862.28;1806379;79;21493;-64
2021/01/12 03:18:55;;;;;;;21.10;14.58;;;;;;;-0.12;75.43;99858.48;1821934;78;21044;-64
2021/01/12 03:21:22;;;;;;;18.90;14.47;;;;;;;-0.13;75.33;99859.33;1806389;79;22146;-63
2021/01/12 03:23:50;;;;;;;18.82;14.00;;;;;;;-0.12;75.40;99861.04;1821997;78;21623;-64
2021/01/12 03:26:21;;;;;;;18.02;13.40;;;;;;;-0.09;75.36;99857.23;1822091;78;21044;-64
2021/01/12 03:28:49;;;;;;;21.50;14.38;;;;;;;-0.05;75.27;99847.05;1822124;78;21472;-63
2021/01/12 03:31:16;;;;;;;21.30;14.03;;;;;;;0.01;75.07;99847.48;1806337;79;21104;-64
2021/01/12 03:33:44;;;;;;;20.32;12.47;;;;;;;0.07;74.97;99852.66;1822072;78;21207;-64
2021/01/12 03:36:13;;;;;;;28.65;17.65;;;;;;;0.14;74.79;99851.00;1806297;79;21104;-64
2021/01/12 03:38:40;;;;;;;25.25;16.35;;;;;;;0.14;74.78;99849.73;1822046;78;21170;-64
2021/01/12 03:41:08;;;;;;;22.15;15.25;;;;;;;0.15;74.70;99840.78;1806344;79;21056;-63
2021/01/12 03:43:35;;;;;;;20.85;14.28;;;;;;;0.17;74.61;99839.52;1822005;78;21052;-64
2021/01/12 03:46:03;;;;;;;16.95;12.55;;;;;;;0.17;74.44;99837.81;1806336;79;21203;-64
2021/01/12 03:48:31;;;;;;;16.65;13.22;;;;;;;0.14;74.21;99835.23;1821965;78;21124;-64
2021/01/12 03:50:59;;;;;;;18.65;13.08;;;;;;;0.00;74.20;99835.13;1806321;79;21078;-64
2021/01/12 03:53:26;;;;;;;16.80;12.85;;;;;;;-0.08;74.28;99824.43;1822060;78;21043;-64
2021/01/12 03:55:54;;;;;;;16.77;12.73;;;;;;;-0.18;74.31;99816.25;1806312;79;21564;-64
2021/01/12 03:58:22;;;;;;;15.75;11.85;;;;;;;-0.27;74.36;99821.31;1822019;78;21568;-64
2021/01/12 04:00:49;;;;;;;18.60;13.43;;;;;;;-0.35;74.47;99821.23;1806254;79;21512;-64
2021/01/12 04:03:17;;;;;;;17.52;11.90;;;;;;;-0.43;74.54;99822.89;1822165;78;21477;-64
2021/01/12 04:05:45;;;;;;;16.42;12.00;;;;;;;-0.57;74.52;99814.23;1806321;79;21048;-63
2021/01/12 04:08:13;;;;;;;17.77;12.47;;;;;;;-0.70;74.81;99816.69;1822058;78;21103;-64
2021/01/12 04:10:40;;;;;;;15.35;11.35;;;;;;;-0.79;74.98;99806.80;1806305;79;21388;-64
2021/01/12 04:13:08;;;;;;;14.50;11.33;;;;;;;-0.93;75.05;99805.39;1822004;78;21059;-65
2021/01/12 04:15:36;;;;;;;16.82;12.03;;;;;;;-1.01;75.32;99810.86;1806314;79;21037;-64
2021/01/12 04:18:04;;;;;;;17.17;12.35;;;;;;;-1.10;75.45;99801.81;1822067;78;21119;-64
2021/01/12 04:20:31;;;;;;;16.67;11.50;;;;;;;-1.20;75.62;99803.40;1809008;79;21121;-65
2021/01/12 04:22:59;;;;;;;18.05;12.98;;;;;;;-1.27;75.81;99804.61;1822141;78;21386;-64
2021/01/12 04:25:27;;;;;;;21.20;13.38;;;;;;;-1.30;75.99;99802.02;1809530;79;21119;-64
2021/01/12 04:27:54;;;;;;;14.83;11.33;;;;;;;-1.37;76.12;99807.46;1822207;78;21139;-64
2021/01/12 04:30:23;;;;;;;14.83;11.25;;;;;;;-1.42;76.16;99810.41;1822199;78;21114;-64
2021/01/12 04:32:51;;;;;;;20.45;14.93;;;;;;;-1.48;76.30;99813.73;1809602;79;21143;-64
2021/01/12 04:35:18;;;;;;;32.35;23.02;;;;;;;-1.53;76.48;99824.28;1822192;78;21853;-64
2021/01/12 04:37:46;;;;;;;41.37;25.97;;;;;;;-1.55;76.46;99823.41;1822068;78;21076;-64
2021/01/12 04:40:14;;;;;;;42.80;24.98;;;;;;;-1.61;76.56;99829.72;1822201;78;21520;-64
2021/01/12 04:42:42;;;;;;;24.52;15.70;;;;;;;-1.65;76.84;99824.14;1809591;79;21123;-64
2021/01/12 04:45:11;;;;;;;18.02;13.05;;;;;;;-1.66;76.96;99825.39;1822183;78;21051;-65
2021/01/12 04:47:39;;;;;;;19.50;14.20;;;;;;;-1.69;76.95;99825.34;1809647;79;21369;-64
2021/01/12 04:50:08;;;;;;;17.25;13.72;;;;;;;-1.72;77.14;99824.03;1822075;78;21106;-65
2021/01/12 04:52:48;;;;;;;17.70;12.80;;;;;;;-1.79;77.17;99820.53;1809579;79;21075;-65
2021/01/12 04:55:17;;;;;;;22.50;15.98;;;;;;;-1.84;77.30;99824.73;1822223;78;21060;-62
2021/01/12 04:57:45;;;;;;;31.75;21.15;;;;;;;-1.90;77.47;99819.53;1809653;79;21540;-63
2021/01/12 05:00:23;;;;;;;29.12;20.27;;;;;;;-1.94;77.70;99815.22;1822217;78;21212;-64
2021/01/12 05:03:05;;;;;;;23.25;16.32;;;;;;;-2.01;77.76;99818.13;1822138;78;21053;-64
2021/01/12 05:05:37;;;;;;;28.87;19.25;;;;;;;-2.12;78.05;99812.86;1821898;78;21087;-63
2021/01/12 05:08:13;;;;;;;30.10;17.50;;;;;;;-2.17;78.35;99813.61;1809565;79;21115;-63
2021/01/12 05:10:42;;;;;;;29.70;17.27;;;;;;;-2.20;78.56;99815.69;1822222;78;21135;-64
2021/01/12 05:13:13;;;;;;;18.10;13.85;;;;;;;-2.24;78.64;99813.10;1809519;79;21417;-64
2021/01/12 05:15:43;;;;;;;17.73;12.78;;;;;;;-2.27;78.78;99820.28;1822130;78;21115;-64
2021/01/12 05:18:11;;;;;;;18.15;12.78;;;;;;;-2.29;78.95;99815.56;1809502;79;21178;-64
2021/01/12 05:20:44;;;;;;;17.60;12.03;;;;;;;-2.29;78.97;99815.98;1817494;78;21052;-64
2021/01/12 05:23:15;;;;;;;18.32;12.58;;;;;;;-2.28;79.05;99824.07;1815513;79;21548;-64
2021/01/12 05:25:43;;;;;;;21.25;11.78;;;;;;;-2.29;79.12;99819.80;1816117;79;21358;-65
2021/01/12 05:28:11;;;;;;;18.10;13.08;;;;;;;-2.28;79.09;99818.97;1816046;79;21623;-63
2021/01/12 05:30:39;;;;;;;21.60;13.85;;;;;;;-2.28;78.99;99812.61;1816143;79;21064;-65
2021/01/12 05:33:07;;;;;;;16.95;12.40;;;;;;;-2.27;78.85;99814.32;1816079;79;21496;-63
2021/01/12 05:35:37;;;;;;;23.92;12.73;;;;;;;-2.31;78.85;99805.77;1806438;79;21528;-64
2021/01/12 05:38:07;;;;;;;20.45;12.68;;;;;;;-2.35;78.78;99800.59;1822096;78;21334;-63
2021/01/12 05:40:42;;;;;;;23.50;12.30;;;;;;;-2.41;78.80;99802.66;1792558;78;21131;-64
2021/01/12 05:43:12;;;;;;;18.12;11.28;;;;;;;-2.45;78.86;99799.61;1806443;79;21485;-64
2021/01/12 05:45:43;;;;;;;29.67;12.90;;;;;;;-2.47;79.00;99800.00;1822174;78;21154;-64
2021/01/12 05:48:11;;;;;;;21.00;12.43;;;;;;;-2.46;79.06;99797.90;1806398;79;21601;-64
2021/01/12 05:50:40;;;;;;;29.72;14.05;;;;;;;-2.45;79.11;99794.10;1822109;78;21384;-64
2021/01/12 05:53:16;;;;;;;31.48;16.65;;;;;;;-2.45;79.10;99790.28;1806439;79;21496;-64
2021/01/12 05:55:46;;;;;;;25.65;13.58;;;;;;;-2.42;78.93;99791.17;1766929;78;21103;-64
2021/01/12 05:58:19;;;;;;;;;;;;;;;-2.45;78.86;99785.61;1770623;78;21051;-62
2021/01/12 06:00:48;;;;;;;31.17;15.90;;;;;;;-2.45;78.87;99786.88;1821917;78;20235;-64
2021/01/12 06:03:17;;;;;;;31.50;15.15;;;;;;;-2.45;79.15;99784.33;1811398;78;21204;-65
2021/01/12 06:05:46;;;;;;;26.10;14.30;;;;;;;-2.40;79.10;99784.41;1781317;80;21211;-65
2021/01/12 06:08:15;;;;;;;25.37;14.63;;;;;;;-2.37;78.99;99783.16;1792178;79;21115;-62
2021/01/12 06:10:45;;;;;;;31.90;15.30;;;;;;;-2.37;78.88;99779.33;1815558;79;21126;-64
2021/01/12 06:13:16;;;;;;;41.00;18.37;;;;;;;-2.36;78.99;99782.33;1815409;79;21123;-63
2021/01/12 06:15:46;;;;;;;28.20;13.50;;;;;;;-2.30;78.94;99786.25;1815403;79;21202;-64
2021/01/12 06:18:18;;;;;;;18.80;13.05;;;;;;;-2.27;79.00;99788.42;1815406;79;21114;-63
2021/01/12 06:21:12;;;;;;;38.55;15.05;;;;;;;-2.23;78.97;99781.28;1796924;79;21464;-63
2021/01/12 06:23:48;;;;;;;29.77;14.63;;;;;;;-2.17;78.96;99789.41;1782232;80;21175;-63
2021/01/12 06:26:16;;;;;;;29.75;16.35;;;;;;;-2.13;78.88;99785.66;1790828;80;21142;-63
2021/01/12 06:28:43;;;;;;;23.65;14.53;;;;;;;-2.09;78.89;99782.73;1764320;80;21444;-64
2021/01/12 06:31:11;;;;;;;29.18;15.25;;;;;;;-2.04;78.85;99779.84;1790705;80;21121;-65
2021/01/12 06:33:39;;;;;;;31.93;17.65;;;;;;;-1.98;78.69;99779.05;1799412;79;21567;-63
2021/01/12 06:36:08;;;;;;;37.93;18.35;;;;;;;-1.95;78.66;99782.50;1824411;78;21039;-63
2021/01/12 06:38:38;;;;;;;24.70;16.30;;;;;;;-1.89;78.62;99785.56;1797627;78;21028;-64
2021/01/12 06:41:08;;;;;;;23.07;15.68;;;;;;;-1.82;78.51;99785.67;1825143;78;21134;-64
2021/01/12 06:43:35;;;;;;;24.87;16.23;;;;;;;-1.75;78.51;99783.62;1825090;78;21115;-63
2021/01/12 06:46:05;;;;;;;32.28;14.38;;;;;;;-1.65;78.38;99783.75;1825187;78;21108;-64
2021/01/12 06:48:43;;;;;;;35.68;17.27;;;;;;;-1.58;78.16;99783.83;1785292;79;21217;-63
2021/01/12 06:51:13;;;;;;;29.27;16.62;;;;;;;-1.51;78.00;99794.55;1824902;78;21599;-64
2021/01/12 06:53:46;;;;;;;30.10;16.87;;;;;;;-1.44;77.86;99783.59;1825141;78;21358;-65
2021/01/12 06:56:14;;;;;;;30.52;15.78;;;;;;;-1.35;77.82;99780.27;1812167;79;21107;-64
2021/01/12 06:58:45;;;;;;;26.02;14.90;;;;;;;-1.26;77.69;99784.22;1812213;79;21134;-63
2021/01/12 07:01:22;;;;;;;24.23;16.32;;;;;;;-1.16;77.43;99781.33;1809821;79;21155;-64
2021/01/12 07:03:50;;;;;;;36.03;17.05;;;;;;;-1.14;76.95;99771.57;1792718;80;21226;-64
2021/01/12 07:06:25;;;;;;;22.02;14.98;;;;;;;-1.15;77.08;99777.52;1807883;78;21212;-63
2021/01/12 07:08:55;;;;;;;25.32;15.30;;;;;;;-1.08;76.87;99770.37;1792676;80;21127;-65
2021/01/12 07:11:25;;;;;;;23.87;16.52;;;;;;;-1.06;76.68;99777.63;1792669;80;21131;-66
2021/01/12 07:13:52;;;;;;;23.02;15.58;;;;;;;-1.02;76.58;99777.66;1792738;79;21587;-65
2021/01/12 07:16:22;;;;;;;25.85;16.75;;;;;;;-1.03;76.45;99765.73;1794544;78;21139;-66
2021/01/12 07:19:00;;;;;;;33.38;18.95;;;;;;;-1.05;76.36;99765.72;1792782;80;21442;-64
2021/01/12 07:21:30;;;;;;;27.20;16.82;;;;;;;-1.10;76.30;99764.39;1791157;80;21178;-66
2021/01/12 07:24:01;;;;;;;26.30;17.77;;;;;;;-1.10;76.11;99763.53;1791922;79;21127;-65
2021/01/12 07:26:35;;;;;;;22.02;15.55;;;;;;;-1.18;76.11;99758.34;1792108;80;21056;-64
2021/01/12 07:29:06;;;;;;;;;;;;;;;-1.23;76.15;99761.70;1794986;79;21476;-65
2021/01/12 07:31:35;;;;;;;27.45;15.40;;;;;;;-1.27;76.38;99759.95;1791744;79;22232;-65
2021/01/12 07:34:02;;;;;;;29.07;16.60;;;;;;;-1.28;76.45;99755.69;1792012;80;21135;-64
2021/01/12 07:36:34;;;;;;;27.48;17.92;;;;;;;-1.26;76.57;99756.14;1774516;80;21135;-64
2021/01/12 07:39:02;;;;;;;40.45;23.98;;;;;;;-1.21;76.47;99764.72;1792095;80;21984;-64
2021/01/12 07:41:30;;;;;;;33.13;20.25;;;;;;;-1.23;76.41;99759.16;1792152;80;21052;-63
2021/01/12 07:43:58;;;;;;;38.15;21.12;;;;;;;-1.27;76.47;99756.98;1792137;80;21467;-64
2021/01/12 07:46:28;;;;;;;26.70;17.95;;;;;;;-1.29;76.63;99756.52;1791389;80;21080;-65
2021/01/12 07:48:56;;;;;;;33.15;19.12;;;;;;;-1.26;76.71;99756.14;1789729;80;21087;-64
2021/01/12 07:51:27;;;;;;;27.40;18.57;;;;;;;-1.26;76.74;99751.46;1795052;78;21182;-62
2021/01/12 07:53:56;;;;;;;34.40;21.77;;;;;;;-1.25;76.89;99748.92;1808210;78;21187;-63
2021/01/12 07:56:36;;;;;;;30.95;18.90;;;;;;;-1.19;76.98;99748.11;1779979;79;22169;-64
2021/01/12 07:59:22;;;;;;;41.13;19.12;;;;;;;-1.13;76.92;99750.31;1755473;80;21227;-65
2021/01/12 08:01:50;;;;;;;34.73;19.55;;;;;;;-1.10;76.84;99741.41;1758139;81;21134;-64
2021/01/12 08:04:17;;;;;;;29.63;18.23;;;;;;;-1.12;76.78;99752.03;1780704;80;21510;-65
2021/01/12 08:06:46;;;;;;;28.12;18.55;;;;;;;-1.09;76.91;99746.95;1776442;80;21512;-65
2021/01/12 08:09:21;;;;;;;32.95;18.35;;;;;;;-1.02;77.02;99754.27;1788893;80;22226;-65
2021/01/12 08:12:03;;;;;;;30.97;18.73;;;;;;;-0.95;76.82;99754.73;1786685;80;21232;-65
2021/01/12 08:14:31;;;;;;;34.08;18.02;;;;;;;-0.89;76.82;99751.39;1789692;80;21168;-65
2021/01/12 08:17:03;;;;;;;37.08;19.45;;;;;;;-0.72;76.74;99746.00;1789599;80;21088;-65
2021/01/12 08:19:30;;;;;;;44.85;19.20;;;;;;;-0.60;76.24;99742.25;1789404;80;21077;-64
2021/01/12 08:21:57;;;;;;;28.42;18.32;;;;;;;-0.49;76.05;99743.63;1797758;79;21128;-64
2021/01/12 08:24:26;;;;;;;39.18;20.57;;;;;;;-0.39;75.75;99750.50;1815390;78;21502;-66
2021/01/12 08:26:54;;;;;;;24.70;17.07;;;;;;;-0.30;75.64;99744.19;1815429;79;21525;-65
2021/01/12 08:29:26;;;;;;;26.05;16.67;;;;;;;-0.18;75.48;99742.97;1815382;79;21073;-65
2021/01/12 08:32:07;;;;;;;35.68;17.75;;;;;;;-0.05;74.94;99738.38;1815614;79;21124;-64
2021/01/12 08:34:58;;;;;;;24.25;16.67;;;;;;;0.07;74.58;99732.88;1815343;79;21298;-64
2021/01/12 08:37:27;;;;;;;23.47;15.80;;;;;;;0.18;74.31;99731.25;1815389;79;21080;-63
2021/01/12 08:40:00;;;;;;;19.60;14.30;;;;;;;0.28;73.65;99734.26;1815319;79;21128;-63
2021/01/12 08:42:27;;;;;;;38.10;18.27;;;;;;;0.35;72.99;99732.17;1815620;79;26483;-65
2021/01/12 08:44:55;;;;;;;20.97;15.70;;;;;;;0.39;72.84;99734.31;1765220;79;21156;-66
2021/01/12 08:47:27;;;;;;;27.87;17.07;;;;;;;0.44;72.81;99729.63;1790551;79;21166;-65
2021/01/12 08:50:05;;;;;;;30.88;17.00;;;;;;;0.50;72.40;99719.84;1815565;79;21173;-64
2021/01/12 08:52:38;;;;;;;18.57;13.68;;;;;;;0.59;72.41;99726.28;1815432;79;21569;-65
2021/01/12 08:55:20;;;;;;;22.10;15.40;;;;;;;0.77;71.91;99716.50;1815671;79;21077;-65
2021/01/12 08:58:05;;;;;;;27.03;15.20;;;;;;;0.88;71.00;99717.36;1791122;79;21494;-66
2021/01/12 09:00:40;;;;;;;17.77;12.95;;;;;;;0.93;70.77;99721.64;1767422;81;21438;-64
2021/01/12 09:03:08;;;;;;;22.70;13.72;;;;;;;1.03;69.94;99716.95;1783283;80;21069;-63
2021/01/12 09:05:40;;;;;;;23.50;13.22;;;;;;;1.11;69.58;99715.67;1743760;81;21167;-64
2021/01/12 09:08:11;;;;;;;33.23;16.07;;;;;;;1.15;69.20;99703.73;1783454;80;21502;-64
2021/01/12 09:10:40;;;;;;;24.02;16.10;;;;;;;1.18;69.12;99704.59;1767385;81;21112;-64
2021/01/12 09:13:10;;;;;;;23.45;14.18;;;;;;;1.26;68.83;99696.45;1783253;79;21197;-62
2021/01/12 09:15:46;;;;;;;26.23;14.13;;;;;;;1.27;68.32;99687.06;1767286;81;21151;-63
2021/01/12 09:18:24;;;;;;;20.02;14.05;;;;;;;1.24;68.20;99688.34;1807607;78;21114;-63
2021/01/12 09:20:58;;;;;;;19.05;13.88;;;;;;;1.20;67.47;99668.73;1824457;78;21214;-64
2021/01/12 09:23:27;;;;;;;25.80;14.38;;;;;;;1.09;67.74;99667.44;1795811;79;21038;-64
2021/01/12 09:26:03;;;;;;;19.42;13.70;;;;;;;1.11;67.59;99653.34;1810886;79;21436;-63
2021/01/12 09:28:35;;;;;;;25.17;14.87;;;;;;;1.12;67.47;99645.66;1794703;79;21180;-64
2021/01/12 09:31:14;;;;;;;22.50;14.25;;;;;;;1.16;67.67;99638.84;1809165;79;21163;-64
2021/01/12 09:33:52;;;;;;;26.25;14.60;;;;;;;1.21;67.53;99638.38;1793192;79;21194;-64
2021/01/12 09:36:23;;;;;;;20.75;12.50;;;;;;;1.26;67.50;99626.42;1809116;79;21658;-64
2021/01/12 09:38:53;;;;;;;25.68;14.13;;;;;;;1.31;67.11;99620.87;1795933;79;21373;-65
2021/01/12 09:41:27;;;;;;;27.95;15.08;;;;;;;1.27;66.93;99609.77;1810530;79;21138;-66
2021/01/12 09:43:55;;;;;;;22.05;13.98;;;;;;;1.26;67.07;99605.50;1796122;79;21555;-64
2021/01/12 09:46:23;;;;;;;23.05;14.55;;;;;;;1.25;67.34;99602.94;1810794;79;21163;-64
2021/01/12 09:48:51;;;;;;;28.07;15.85;;;;;;;1.34;67.39;99602.94;1796088;79;21146;-64
2021/01/12 09:51:19;;;;;;;25.40;16.02;;;;;;;1.40;67.37;99595.20;1810751;79;21374;-65
2021/01/12 09:53:51;;;;;;;25.65;15.25;;;;;;;1.51;67.26;99597.33;1796048;79;21075;-67
2021/01/12 09:56:21;;;;;;;23.05;14.85;;;;;;;1.66;67.07;99579.75;1805956;79;21133;-66
2021/01/12 09:58:50;;;;;;;22.70;13.98;;;;;;;1.80;65.82;99569.46;1763075;81;21543;-64
2021/01/12 10:01:19;;;;;;;25.68;15.03;;;;;;;1.81;65.70;99556.60;1778750;80;21092;-63
2021/01/12 10:03:47;;;;;;;24.12;14.13;;;;;;;1.78;65.72;99556.64;1787424;80;22250;-64
2021/01/12 10:09:04;;;;;;;25.52;13.70;;;;;;;1.93;65.64;99550.14;1872741;76;22369;-66
2021/01/12 10:11:33;;;;;;;23.40;14.13;;;;;;;1.92;65.28;99553.57;1841382;77;21187;-65
2021/01/12 10:14:01;;;;;;;23.65;13.13;;;;;;;1.93;65.30;99553.14;1841447;77;21350;-63
2021/01/12 10:16:30;;;;;;;23.00;13.32;;;;;;;1.88;64.69;99554.87;1841394;77;21050;-65
2021/01/12 10:18:58;;;;;;;21.65;13.75;;;;;;;1.83;64.90;99554.88;1841445;77;21050;-65
2021/01/12 10:21:26;;;;;;;23.12;13.85;;;;;;;1.88;65.02;99553.16;1841406;77;21475;-64
2021/01/12 10:23:54;;;;;;;23.75;14.03;;;;;;;1.93;64.85;99556.98;1837683;77;21237;-64
2021/01/12 10:26:24;;;;;;;23.62;13.43;;;;;;;1.87;64.56;99569.41;1838354;78;21555;-64
2021/01/12 10:28:53;;;;;;;19.37;11.65;;;;;;;1.86;64.81;99574.53;1841444;77;21125;-63
2021/01/12 10:31:24;;;;;;;25.15;13.45;;;;;;;1.85;64.45;99583.94;1841361;77;21040;-66
2021/01/12 10:33:52;;;;;;;38.48;15.03;;;;;;;1.78;64.76;99575.88;1841394;77;21105;-65
2021/01/12 10:36:21;;;;;;;45.78;14.98;;;;;;;1.84;64.91;99574.54;1841529;77;21586;-63
2021/01/12 10:38:49;;;;;;;26.30;14.87;;;;;;;1.89;64.75;99558.70;1841433;78;21343;-64
2021/01/12 10:41:16;;;;;;;20.23;13.35;;;;;;;1.94;64.51;99542.88;1841264;77;21112;-64
2021/01/12 10:43:44;;;;;;;23.75;12.25;;;;;;;1.97;64.46;99527.90;1838110;78;21196;-64
2021/01/12 10:46:16;;;;;;;24.70;13.70;;;;;;;2.02;64.04;99516.73;1837488;77;21149;-64
2021/01/12 10:48:44;;;;;;;25.80;13.95;;;;;;;2.00;63.95;99507.34;1811081;78;21210;-64
2021/01/12 10:51:12;;;;;;;45.10;15.70;;;;;;;1.95;63.89;99497.13;1805962;79;23586;-65
2021/01/12 10:53:41;;;;;;;25.70;13.68;;;;;;;1.85;63.87;99501.88;1807477;78;21129;-65
2021/01/12 10:56:16;;;;;;;32.65;15.13;;;;;;;1.80;64.30;99498.48;1808353;79;21183;-63
2021/01/12 10:58:44;;;;;;;21.82;13.88;;;;;;;1.83;64.68;99490.77;1808416;79;21828;-63
2021/01/12 11:01:16;;;;;;;31.07;14.50;;;;;;;1.86;64.51;99488.19;1808305;78;21109;-63
2021/01/12 11:03:45;;;;;;;20.68;13.65;;;;;;;1.82;64.44;99483.94;1808533;79;21193;-63
2021/01/12 11:06:15;;;;;;;29.30;12.75;;;;;;;1.82;64.61;99476.25;1808418;78;21124;-62
2021/01/12 11:08:44;;;;;;;28.23;14.68;;;;;;;1.85;64.62;99471.53;1812369;77;21065;-63
2021/01/12 11:11:21;;;;;;;29.48;15.03;;;;;;;1.87;64.92;99469.81;1814083;79;21116;-64
2021/01/12 11:13:51;;;;;;;23.80;13.60;;;;;;;1.95;64.72;99475.33;1814072;78;21172;-64
2021/01/12 11:16:21;;;;;;;21.15;14.38;;;;;;;1.95;64.49;99474.47;1813694;79;23600;-63
2021/01/12 11:18:52;;;;;;;27.93;15.30;;;;;;;1.91;64.54;99464.66;1813483;78;21146;-62
2021/01/12 11:21:22;;;;;;;22.10;15.03;;;;;;;1.93;64.42;99459.52;1813275;79;21640;-66
2021/01/12 11:23:51;;;;;;;50.23;15.75;;;;;;;1.85;64.51;99461.27;1812421;79;21184;-65
2021/01/12 11:26:30;;;;;;;18.98;14.53;;;;;;;1.76;64.78;99462.63;1813179;79;21165;-64
2021/01/12 11:28:58;;;;;;;27.42;14.30;;;;;;;1.79;65.16;99454.92;1789102;79;21354;-64
2021/01/12 11:31:27;;;;;;;27.77;15.13;;;;;;;1.81;64.95;99451.46;1813346;78;21057;-63
2021/01/12 11:33:57;;;;;;;20.10;14.18;;;;;;;1.79;65.16;99453.64;1811851;79;21195;-65
2021/01/12 11:36:27;;;;;;;34.67;18.02;;;;;;;1.73;65.37;99452.81;1809970;78;21156;-66